Flight Track Log - Related Links

Times and Time Zones

All times are in EDT time to prevent confusion due to time zone crossing. See the N281SE flight status page for this flight to view local times or setup timezone preferences in your user account.

Time Position Orientation Groundspeed Altitude Reporting Facility
EDT Latitude Longitude Course Direction KTS MPH feet Rate Location/Type
Fri 02:57:10 PM 30.1667 -97.7286 290° West 171 197 3,200  Level Fort Worth Center
Fri 02:58:12 PM 30.1958 -97.7689 310° West 169 194 4,400 1,056 Climbing Fort Worth Center
Fri 02:59:15 PM 30.2231 -97.8108 307° West 164 189 5,400 1,104 Climbing Fort Worth Center
Fri 03:00:17 PM 30.2492 -97.8561 304° West 164 189 6,700 1,256 Climbing Fort Worth Center
Fri 03:01:00 PM 30.5033 -97.9066 300° West  Level FlightAware Approximate
Fri 03:01:24 PM 30.2822 -97.9106 305° West 166 191 8,100  Level Houston Center
Fri 03:02:00 PM 30.5298 -97.9747 290° West  Level FlightAware Approximate
Fri 03:02:26 PM 30.3097 -97.9564 305° West 168 193 9,200  Level Houston Center
Fri 03:03:28 PM 30.3367 -98.0022 304° West 173 199 10,200 1,016 Climbing Houston Center
Fri 03:04:30 PM 30.3653 -98.0508 304° West 179 206 11,300 1,016 Climbing Houston Center
Fri 03:05:32 PM 30.3953 -98.1008 305° West 185 213 12,300 1,104 Climbing Houston Center
Fri 03:06:35 PM 30.4292 -98.1614 303° West 186 214 13,600 1,152 Climbing Houston Center
Fri 03:07:37 PM 30.4511 -98.2156 295° West 187 215 14,700 968 Climbing Houston Center
Fri 03:08:39 PM 30.4739 -98.2703 296° West 187 215 15,600 871 Climbing Houston Center
Fri 03:09:41 PM 30.4978 -98.3261 296° West 189 217 16,500 968 Climbing Houston Center
Fri 03:10:43 PM 30.5211 -98.3808 296° West 190 219 17,600 1,016 Climbing Houston Center
Fri 03:11:45 PM 30.5444 -98.4375 296° West 191 220 18,600 960 Climbing Houston Center
Fri 03:12:48 PM 30.5731 -98.5044 296° West 191 220 19,600 912 Climbing Houston Center
Fri 03:13:50 PM 30.5983 -98.5625 297° West 197 227 20,500 871 Climbing Houston Center
Fri 03:14:52 PM 30.6219 -98.6206 295° West 197 227 21,400 919 Climbing Houston Center
Fri 03:15:54 PM 30.6481 -98.6808 297° West 203 234 22,400 871 Climbing Houston Center
Fri 03:16:56 PM 30.6722 -98.7411 295° West 204 235 23,200 726 Climbing Houston Center
Fri 03:17:58 PM 30.6986 -98.8028 296° West 209 241 23,900 384 Climbing Houston Center
Fri 03:19:01 PM 30.7336 -98.8856 296° West 236 272 24,000 384 Climbing Houston Center
Fri 03:20:03 PM 30.7639 -98.9583 296° West 246 283 24,700 774 Climbing Houston Center
Fri 03:21:05 PM 30.7919 -99.0253 296° West 236 272 25,600 629 Climbing Houston Center
Fri 03:22:07 PM 30.8206 -99.0933 296° West 233 268 26,000 190 Climbing Houston Center
Fri 03:23:11 PM 30.8525 -99.1706 296° West 250 288 26,000  Level Houston Center
Fri 03:24:12 PM 30.8842 -99.2483 295° West 262 302 26,000  Level Houston Center
Fri 03:25:14 PM 30.9225 -99.3419 296° West 264 304 26,000  Level Houston Center
Fri 03:26:16 PM 30.9561 -99.4208 296° West 268 308 26,000  Level Houston Center
Fri 03:27:18 PM 30.9875 -99.4986 295° West 269 310 26,000  Level Houston Center
Fri 03:28:20 PM 31.0189 -99.5761 295° West 268 308 26,000  Level Houston Center
Fri 03:29:22 PM 31.0522 -99.6544 296° West 268 308 26,000  Level Houston Center
Fri 03:30:25 PM 31.0831 -99.7319 295° West 267 307 26,000  Level Houston Center
Fri 03:31:27 PM 31.1219 -99.8261 296° West 267 307 26,000 -48 Level Houston Center
Fri 03:32:30 PM 31.1525 -99.9033 295° West 266 306 25,900  Descending Houston Center
Fri 03:33:26 PM 31.1839 -99.9794 296° West 265 305 26,000 51 Climbing Fort Worth Center
Fri 03:34:28 PM 31.2158 -100.0581 295° West 268 308 26,000  Level Fort Worth Center
Fri 03:35:30 PM 31.2475 -100.1386 295° West 270 311 26,000  Level Fort Worth Center
Fri 03:36:32 PM 31.2803 -100.2158 296° West 270 311 26,000  Level Fort Worth Center
Fri 03:37:35 PM 31.3114 -100.2947 295° West 270 311 26,000  Level Fort Worth Center
Fri 03:38:37 PM 31.3508 -100.3906 296° West 270 311 26,000 -48 Level Fort Worth Center
Fri 03:39:39 PM 31.3833 -100.4708 295° West 271 312 25,900  Descending Fort Worth Center
Fri 03:40:41 PM 31.4219 -100.5456 301° West 271 312 26,000 48 Climbing Fort Worth Center
Fri 03:41:43 PM 31.4614 -100.6250 300° West 271 312 26,000  Level Fort Worth Center
Fri 03:42:45 PM 31.4997 -100.7022 300° West 273 314 26,000  Level Fort Worth Center
Fri 03:43:48 PM 31.5369 -100.7789 300° West 272 313 26,000  Level Fort Worth Center
Fri 03:44:50 PM 31.5828 -100.8708 300° West 272 313 26,000  Level Fort Worth Center
Fri 03:45:52 PM 31.6203 -100.9475 300° West 272 313 26,000  Level Fort Worth Center
Fri 03:46:54 PM 31.6586 -101.0242 300° West 273 314 26,000  Level Fort Worth Center
Fri 03:47:56 PM 31.6961 -101.1014 300° West 273 314 26,000  Level Fort Worth Center
Fri 03:48:58 PM 31.7333 -101.1778 300° West 272 313 26,000  Level Fort Worth Center
Fri 03:50:00 PM 31.7711 -101.2547 300° West 272 313 26,000  Level Fort Worth Center
Fri 03:51:03 PM 31.8158 -101.3458 300° West 271 312 26,000  Level Fort Worth Center
Fri 03:52:05 PM 31.8539 -101.4222 300° West 271 312 26,000  Level Fort Worth Center
Fri 03:53:07 PM 31.8908 -101.5000 299° West 272 313 26,000  Level Fort Worth Center
Fri 03:54:09 PM 31.9272 -101.5772 299° West 272 313 26,000  Level Fort Worth Center
Fri 03:55:11 PM 31.9650 -101.6536 300° West 272 313 26,000  Level Fort Worth Center
Fri 03:56:13 PM 32.0103 -101.7469 300° West 276 318 26,000  Level Fort Worth Center
Fri 03:57:16 PM 32.0458 -101.8225 299° West 269 310 26,000  Level Fort Worth Center
Fri 03:58:18 PM 32.0836 -101.9014 299° West 276 318 26,000  Level Fort Worth Center
Fri 03:59:20 PM 32.1194 -101.9758 300° West 269 310 26,000  Level Fort Worth Center
Fri 04:00:22 PM 32.1586 -102.0594 299° West 269 310 26,000  Level Fort Worth Center
Fri 04:01:24 PM 32.1953 -102.1369 299° West 267 307 26,000  Level Fort Worth Center
Fri 04:02:28 PM 32.2322 -102.2136 300° West 267 307 26,000  Level Fort Worth Center
Fri 04:03:30 PM 32.2675 -102.2897 299° West 267 307 26,000  Level Fort Worth Center
Fri 04:04:32 PM 32.3117 -102.3819 300° West 267 307 26,000  Level Fort Worth Center
Fri 04:05:35 PM 32.3483 -102.4592 299° West 267 307 26,000  Level Fort Worth Center
Fri 04:06:37 PM 32.3836 -102.5369 298° West 267 307 26,000  Level Fort Worth Center
Fri 04:07:39 PM 32.4206 -102.6136 300° West 266 306 26,000  Level Fort Worth Center
Fri 04:08:41 PM 32.4569 -102.6889 300° West 265 305 26,000  Level Fort Worth Center
Fri 04:09:43 PM 32.4931 -102.7650 299° West 265 305 26,000 -65 Level Fort Worth Center
Fri 04:11:47 PM 32.5719 -102.9319 299° West 265 305 25,800 -321 Descending Fort Worth Center
Fri 04:12:50 PM 32.6092 -103.0108 299° West 268 308 25,000 -768 Descending Fort Worth Center
Fri 04:13:52 PM 32.6450 -103.0872 299° West 270 311 24,200 -783 Descending Fort Worth Center
Fri 04:15:54 PM 32.7136 -103.2369 299° West 263 303 22,600 -783 Descending Albuquerque Center
Fri 04:16:56 PM 32.7461 -103.3100 298° West 256 295 21,800 -774 Descending Albuquerque Center
Fri 04:17:58 PM 32.7783 -103.3803 299° West 249 287 21,000 -774 Descending Albuquerque Center
Fri 04:19:00 PM 32.8167 -103.4636 299° West 242 278 20,200 -488 Descending Albuquerque Center
Fri 04:20:01 PM 32.8478 -103.5292 299° West 233 268 20,000 -98 Descending Albuquerque Center
Fri 04:21:03 PM 32.8764 -103.5933 298° West 225 259 20,000 -435 Level Albuquerque Center
Fri 04:22:05 PM 32.9061 -103.6600 298° West 225 259 19,100 -871 Descending Albuquerque Center
Fri 04:23:07 PM 32.9375 -103.7411 295° West 237 273 18,200 -532 Descending Albuquerque Center
Fri 04:24:09 PM 32.9650 -103.8078 296° West 228 262 18,000 -146 Descending Albuquerque Center
Fri 04:25:10 PM 32.9939 -103.8719 298° West 222 255 17,900 -780 Descending Albuquerque Center
Fri 04:26:12 PM 33.0250 -103.9436 297° West 223 257 16,400 -1,452 Descending Albuquerque Center
Fri 04:27:14 PM 33.0536 -104.0100 297° West 225 259 14,900 -1,500 Descending Albuquerque Center
Fri 04:28:16 PM 33.0911 -104.0756 304° West 224 258 13,300 -1,463 Descending Albuquerque Center
Fri 04:29:17 PM 33.1244 -104.1356 304° West 221 254 11,900 -1,317 Descending Albuquerque Center
Fri 04:30:19 PM 33.1544 -104.1972 300° West 218 251 10,600 -1,210 Descending Albuquerque Center
Fri 04:31:21 PM 33.1839 -104.2656 297° West 216 249 9,400 -1,113 Descending Albuquerque Center
Fri 04:32:23 PM 33.2133 -104.3319 298° West 222 255 8,300 -1,070 Descending Albuquerque Center
Fri 04:34:26 PM 33.2322 -104.4678 279° West 203 234 6,100 -973 Descending Albuquerque Center
Fri 04:35:28 PM 33.2356 -104.5258 274° West 182 209 5,300 -871 Descending Albuquerque Center
Fri 04:36:30 PM 33.2661 -104.5569 320° Northwest 148 170 4,300 -823 Descending Albuquerque Center
Fri 04:37:32 PM 33.2903 -104.5319 41° Northeast 108 124 3,600 -677 Descending Albuquerque Center
Fri 04:39:00 PM 33.3000 -104.5167 301° West  Level FlightAware Approximate

Login

Don't have an account? Register now (free) for customized features, flight alerts, and more!